createdAt,value
2019-01-14T00:02:30.259Z,7.10
2019-01-14T00:05:01.382Z,7.00
2019-01-14T00:07:32.521Z,7.00
2019-01-14T00:10:03.660Z,7.00
2019-01-14T00:12:33.829Z,7.00
2019-01-14T00:15:06.082Z,7.00
2019-01-14T00:17:37.175Z,6.90
2019-01-14T00:20:14.299Z,6.90
2019-01-14T00:22:45.830Z,6.90
2019-01-14T00:25:17.199Z,6.90
2019-01-14T00:27:47.357Z,6.90
2019-01-14T00:30:20.519Z,6.80
2019-01-14T00:32:51.961Z,6.90
2019-01-14T00:35:23.078Z,6.90
2019-01-14T00:37:54.848Z,6.90
2019-01-14T00:40:26.002Z,6.80
2019-01-14T00:42:58.562Z,6.80
2019-01-14T00:45:30.957Z,6.70
2019-01-14T00:48:03.814Z,6.70
2019-01-14T00:50:34.082Z,6.60
2019-01-14T00:53:04.589Z,6.60
2019-01-14T00:55:34.792Z,6.60
2019-01-14T00:58:05.141Z,6.70
2019-01-14T01:00:37.525Z,6.60
2019-01-14T01:08:08.587Z,6.60
2019-01-14T01:10:42.694Z,6.60
2019-01-14T01:13:13.811Z,6.60
2019-01-14T01:15:44.900Z,6.60
2019-01-14T01:18:16.290Z,6.70
2019-01-14T01:20:46.782Z,6.70
2019-01-14T01:23:17.839Z,6.80
2019-01-14T01:25:48.953Z,6.80
2019-01-14T01:28:22.102Z,6.70
2019-01-14T01:30:54.142Z,6.80
2019-01-14T01:35:57.660Z,6.70
2019-01-14T01:38:28.838Z,6.70
2019-01-14T01:40:59.037Z,6.70
2019-01-14T01:43:30.171Z,6.70
2019-01-14T01:46:01.384Z,6.60
2019-01-14T01:48:34.252Z,6.60
2019-01-14T01:51:07.237Z,6.70
2019-01-14T01:53:38.473Z,6.80
2019-01-14T01:56:09.581Z,6.70
2019-01-14T01:58:40.747Z,6.90
2019-01-14T02:01:12.828Z,6.80
2019-01-14T02:03:43.925Z,6.90
2019-01-14T02:06:14.143Z,6.90
2019-01-14T02:08:47.079Z,6.90
2019-01-14T02:11:19.018Z,6.90
2019-01-14T02:13:50.914Z,6.90
2019-01-14T02:16:22.048Z,7.00
2019-01-14T02:18:53.566Z,7.00
2019-01-14T02:21:23.777Z,7.00
2019-01-14T02:23:53.976Z,7.00
2019-01-14T02:26:24.234Z,7.10
2019-01-14T02:28:55.831Z,7.10
2019-01-14T02:31:26.028Z,7.10
2019-01-14T02:33:57.272Z,7.10
2019-01-14T02:36:28.424Z,7.10
2019-01-14T02:39:00.628Z,7.10
2019-01-14T02:41:34.987Z,7.10
2019-01-14T02:44:06.122Z,7.10
2019-01-14T02:46:36.389Z,7.10
2019-01-14T02:49:07.522Z,7.10
2019-01-14T02:51:38.254Z,7.10
2019-01-14T02:54:10.357Z,7.10
2019-01-14T02:56:41.662Z,7.10
2019-01-14T02:59:12.840Z,7.10
2019-01-14T03:01:43.009Z,7.10
2019-01-14T03:04:14.585Z,7.10
2019-01-14T03:06:45.932Z,7.00
2019-01-14T03:09:16.114Z,7.00
2019-01-14T03:11:47.315Z,7.00
2019-01-14T03:14:18.473Z,6.90
2019-01-14T03:16:50.925Z,7.00
2019-01-14T03:19:23.809Z,6.90
2019-01-14T03:21:54.094Z,7.00
2019-01-14T03:24:25.230Z,7.00
2019-01-14T03:26:56.277Z,7.10
2019-01-14T03:29:26.441Z,7.00
2019-01-14T03:31:59.503Z,7.00
2019-01-14T03:34:30.843Z,7.10
2019-01-14T03:37:05.449Z,7.10
2019-01-14T03:39:34.114Z,7.10
2019-01-14T03:42:05.258Z,7.10
2019-01-14T03:44:36.434Z,7.10
2019-01-14T03:47:09.359Z,7.10
2019-01-14T03:49:39.622Z,7.10
2019-01-14T03:52:09.821Z,6.90
2019-01-14T03:54:42.619Z,6.90
2019-01-14T03:57:14.951Z,6.90
2019-01-14T03:59:47.205Z,6.90
2019-01-14T04:02:18.323Z,6.90
2019-01-14T04:07:19.509Z,6.90
2019-01-14T04:09:50.730Z,6.90
2019-01-14T04:12:21.971Z,6.80
2019-01-14T04:14:53.065Z,6.80
2019-01-14T04:17:24.230Z,6.80
2019-01-14T04:19:54.407Z,6.90
2019-01-14T04:22:26.725Z,6.80
2019-01-14T04:24:57.962Z,6.80
2019-01-14T04:27:27.830Z,6.80
2019-01-14T04:29:58.751Z,6.80
2019-01-14T04:32:29.162Z,6.70
2019-01-14T04:34:59.341Z,6.80
2019-01-14T04:37:30.594Z,6.80
2019-01-14T04:40:01.652Z,6.80
2019-01-14T04:42:32.786Z,6.80
2019-01-14T04:45:03.932Z,6.80
2019-01-14T04:47:35.151Z,6.80
2019-01-14T04:50:09.242Z,6.80
2019-01-14T04:52:40.431Z,6.90
2019-01-14T04:55:11.659Z,6.90
2019-01-14T04:57:42.811Z,6.80
2019-01-14T05:05:18.047Z,6.80
2019-01-14T05:07:48.231Z,6.90
2019-01-14T05:10:22.918Z,6.90
2019-01-14T05:12:53.194Z,7.00
2019-01-14T05:15:23.389Z,7.00
2019-01-14T05:17:56.742Z,6.90
2019-01-14T05:20:27.878Z,6.90
2019-01-14T05:25:27.727Z,6.80
2019-01-14T05:27:58.433Z,6.70
2019-01-14T05:30:29.734Z,6.60
2019-01-14T05:32:59.989Z,6.60
2019-01-14T05:35:32.164Z,6.70
2019-01-14T05:38:04.236Z,6.60
2019-01-14T05:40:37.094Z,6.60
2019-01-14T05:43:08.289Z,6.70
2019-01-14T05:45:42.726Z,6.60
2019-01-14T05:48:13.083Z,6.60
2019-01-14T05:53:13.157Z,6.60
2019-01-14T06:03:19.723Z,6.60
2019-01-14T06:05:52.165Z,6.60
2019-01-14T06:08:22.373Z,6.60
2019-01-14T06:10:53.610Z,6.60
2019-01-14T06:13:23.331Z,6.60
2019-01-14T06:15:55.466Z,6.60
2019-01-14T06:18:26.600Z,6.60
2019-01-14T06:20:59.556Z,6.30
2019-01-14T06:23:32.043Z,6.10
2019-01-14T06:26:02.318Z,6.10
2019-01-14T06:31:05.559Z,6.10
2019-01-14T06:33:36.682Z,6.00
2019-01-14T06:36:10.570Z,5.90
2019-01-14T06:46:13.181Z,5.80
2019-01-14T06:48:46.139Z,5.80
2019-01-14T06:51:17.334Z,5.70
2019-01-14T06:53:48.473Z,5.70
2019-01-14T06:56:19.609Z,5.70
2019-01-14T06:58:52.556Z,5.80
2019-01-14T07:01:22.026Z,5.90
2019-01-14T07:03:51.494Z,5.80
2019-01-14T07:08:53.625Z,5.80
2019-01-14T07:11:25.839Z,5.80
2019-01-14T07:13:56.974Z,5.90
2019-01-14T07:16:27.174Z,5.90
2019-01-14T07:18:58.919Z,5.90
2019-01-14T07:21:30.057Z,6.00
2019-01-14T07:26:32.035Z,6.10
2019-01-14T07:29:06.421Z,6.10
2019-01-14T07:31:36.265Z,6.10
2019-01-14T07:34:07.513Z,6.10
2019-01-14T07:36:39.574Z,6.10
2019-01-14T07:39:13.775Z,6.10
2019-01-14T07:41:45.127Z,6.10
2019-01-14T07:44:15.417Z,6.00
2019-01-14T07:46:47.565Z,6.00
2019-01-14T07:49:18.753Z,5.90
2019-01-14T07:51:49.842Z,5.90
2019-01-14T07:54:21.604Z,5.80
2019-01-14T07:56:52.325Z,5.80
2019-01-14T07:59:24.014Z,5.70
2019-01-14T08:01:54.177Z,5.70
2019-01-14T08:04:27.016Z,5.60
2019-01-14T08:06:57.198Z,5.70
2019-01-14T08:09:28.323Z,5.70
2019-01-14T08:14:31.045Z,5.60
2019-01-14T08:17:04.812Z,5.60
2019-01-14T08:19:35.075Z,5.60
2019-01-14T08:22:06.414Z,5.50
2019-01-14T08:27:08.299Z,5.70
2019-01-14T08:29:41.158Z,5.60
2019-01-14T08:32:16.294Z,5.70
2019-01-14T08:34:46.490Z,5.80
2019-01-14T08:37:18.365Z,5.90
2019-01-14T08:39:50.769Z,5.80
2019-01-14T08:42:21.388Z,5.90
2019-01-14T08:44:53.531Z,5.90
2019-01-14T08:47:23.737Z,5.90
2019-01-14T08:49:56.119Z,6.00
2019-01-14T08:52:27.577Z,6.00
2019-01-14T08:54:57.778Z,6.00
2019-01-14T08:57:29.421Z,6.00
2019-01-14T09:00:02.369Z,6.00
2019-01-14T09:02:33.505Z,6.00
2019-01-14T09:07:34.281Z,5.90
2019-01-14T09:10:08.683Z,5.90
2019-01-14T09:12:38.872Z,6.30
2019-01-14T09:15:13.236Z,5.80
2019-01-14T09:17:43.542Z,5.80
2019-01-14T09:20:20.040Z,5.80
2019-01-14T09:22:52.855Z,5.80
2019-01-14T09:25:23.223Z,5.90
2019-01-14T09:27:54.282Z,5.90
2019-01-14T09:30:26.133Z,5.80
2019-01-14T09:32:56.636Z,5.70
2019-01-14T09:35:28.177Z,5.70
2019-01-14T09:38:00.186Z,5.80
2019-01-14T09:40:29.952Z,5.80
2019-01-14T09:43:01.103Z,5.70
2019-01-14T09:45:31.401Z,5.80
2019-01-14T09:48:02.605Z,5.90
2019-01-14T09:50:32.819Z,5.90
2019-01-14T09:53:03.937Z,5.80
2019-01-14T09:58:06.247Z,5.90
2019-01-14T10:00:37.821Z,6.00
2019-01-14T10:03:08.039Z,6.00
2019-01-14T10:05:39.205Z,6.00
2019-01-14T10:08:10.279Z,6.00
2019-01-14T10:10:42.430Z,6.10
2019-01-14T10:13:13.878Z,6.20
2019-01-14T10:15:45.043Z,6.20
2019-01-14T10:20:48.264Z,6.20
2019-01-14T10:23:19.281Z,6.10
2019-01-14T10:28:22.919Z,5.80
2019-01-14T10:30:54.058Z,5.80
2019-01-14T10:33:26.981Z,5.80
2019-01-14T10:35:58.080Z,5.80
2019-01-14T10:43:30.013Z,5.90
2019-01-14T10:46:02.962Z,5.80
2019-01-14T10:48:34.201Z,5.80
2019-01-14T10:51:05.623Z,5.80
2019-01-14T10:53:37.187Z,5.90
2019-01-14T10:56:10.181Z,5.80
2019-01-14T10:58:42.698Z,5.80
2019-01-14T11:01:14.157Z,5.80
2019-01-14T11:03:45.293Z,5.80
2019-01-14T11:06:15.473Z,5.90
2019-01-14T11:08:46.618Z,5.90
2019-01-14T11:13:47.553Z,5.90
2019-01-14T11:16:18.798Z,5.90
2019-01-14T11:18:50.177Z,6.00
2019-01-14T11:21:21.350Z,6.10
2019-01-14T11:23:52.524Z,6.20
2019-01-14T11:26:25.085Z,6.10
2019-01-14T11:28:55.302Z,6.20
2019-01-14T11:31:26.526Z,6.20
2019-01-14T11:33:58.951Z,6.10
2019-01-14T11:36:30.854Z,6.20
2019-01-14T11:41:33.582Z,6.20
2019-01-14T11:44:04.752Z,6.20
2019-01-14T11:49:06.586Z,6.30
2019-01-14T11:51:36.786Z,6.20
2019-01-14T11:54:08.883Z,6.40
2019-01-14T11:56:40.015Z,6.40
2019-01-14T11:59:10.144Z,6.40
2019-01-14T12:04:11.357Z,6.40
2019-01-14T12:06:42.973Z,6.40
2019-01-14T12:11:43.055Z,6.30
2019-01-14T12:14:13.253Z,6.40
2019-01-14T12:16:43.433Z,6.40
2019-01-14T12:21:45.291Z,6.70
2019-01-14T12:24:17.615Z,6.90
2019-01-14T12:26:47.893Z,6.90
2019-01-14T12:29:19.038Z,7.00
2019-01-14T12:31:50.193Z,7.00
2019-01-14T12:34:21.325Z,6.60
2019-01-14T12:36:52.980Z,6.20
2019-01-14T12:39:23.156Z,6.10
2019-01-14T12:41:55.685Z,6.00
2019-01-14T12:44:28.237Z,5.90
2019-01-14T12:47:00.321Z,5.90
2019-01-14T12:49:32.005Z,5.80
2019-01-14T12:52:03.733Z,5.80
2019-01-14T12:57:04.041Z,5.40
2019-01-14T13:09:38.648Z,5.10
2019-01-14T13:12:09.818Z,5.10
2019-01-14T13:17:09.269Z,5.20
2019-01-14T13:19:40.399Z,5.30
2019-01-14T13:22:10.709Z,5.30
2019-01-14T13:24:42.808Z,5.40
2019-01-14T13:34:47.020Z,5.70
2019-01-14T13:37:18.277Z,5.50
2019-01-14T13:39:52.605Z,5.50
2019-01-14T13:42:21.362Z,5.50
2019-01-14T13:44:53.681Z,5.70
2019-01-14T13:47:23.858Z,5.80
2019-01-14T13:49:55.781Z,5.80
2019-01-14T13:52:26.169Z,5.80
2019-01-14T13:57:29.362Z,6.00
2019-01-14T13:59:59.637Z,6.00
2019-01-14T14:05:01.596Z,5.90
2019-01-14T14:07:35.373Z,5.90
2019-01-14T14:10:09.935Z,5.90
2019-01-14T14:15:14.025Z,5.90
2019-01-14T14:17:45.209Z,5.80
2019-01-14T14:22:49.401Z,5.80
2019-01-14T14:27:51.006Z,5.70
2019-01-14T14:30:24.870Z,5.60
2019-01-14T14:38:01.453Z,5.60
2019-01-14T14:40:29.233Z,5.50
2019-01-14T14:43:00.428Z,5.50
2019-01-14T14:45:30.657Z,5.40
2019-01-14T14:50:31.881Z,5.40
2019-01-14T14:53:04.817Z,5.40
2019-01-14T15:00:38.102Z,5.30
2019-01-14T15:03:09.467Z,5.30
2019-01-14T15:05:41.797Z,5.20
2019-01-14T15:08:15.289Z,5.20
2019-01-14T15:15:51.915Z,5.00
2019-01-14T15:20:52.856Z,4.90
2019-01-14T15:23:24.098Z,4.90
2019-01-14T15:25:55.621Z,4.90
2019-01-14T15:28:27.925Z,4.90
2019-01-14T15:33:29.874Z,5.10
2019-01-14T15:38:35.203Z,4.90
2019-01-14T15:41:06.305Z,4.80
2019-01-14T15:46:08.050Z,4.80
2019-01-14T15:48:39.189Z,4.70
2019-01-14T15:51:10.754Z,4.60
2019-01-14T15:58:43.366Z,4.60
2019-01-14T16:03:45.175Z,4.70
2019-01-14T16:06:18.437Z,4.80
2019-01-14T16:08:49.537Z,4.80
2019-01-14T16:16:22.638Z,4.90
2019-01-14T16:18:52.843Z,4.90
2019-01-14T16:21:23.146Z,4.90
2019-01-14T16:23:54.697Z,5.00
2019-01-14T16:26:25.001Z,5.00
2019-01-14T16:31:26.982Z,5.00
2019-01-14T16:34:00.697Z,5.10
2019-01-14T16:39:04.929Z,5.10
2019-01-14T16:41:35.161Z,5.00
2019-01-14T16:44:06.648Z,5.00
2019-01-14T16:46:37.846Z,5.00
2019-01-14T16:49:08.054Z,5.00
2019-01-14T16:51:39.211Z,4.90
2019-01-14T16:54:12.006Z,5.00
2019-01-14T16:56:43.162Z,4.90
2019-01-14T17:01:47.430Z,4.90
2019-01-14T17:04:18.574Z,4.70
2019-01-14T17:06:51.569Z,4.70
2019-01-14T17:09:22.666Z,4.70
2019-01-14T17:11:52.877Z,4.60
2019-01-14T17:14:24.909Z,4.50
2019-01-14T17:19:24.854Z,4.40
2019-01-14T17:26:55.726Z,4.50
2019-01-14T17:29:27.181Z,4.60
2019-01-14T17:32:00.469Z,4.40
2019-01-14T17:34:33.349Z,4.60
2019-01-14T17:37:04.545Z,4.60
2019-01-14T17:39:34.867Z,4.60
2019-01-14T17:42:06.421Z,4.60
2019-01-14T17:47:09.964Z,4.70
2019-01-14T17:52:10.889Z,4.70
2019-01-14T17:54:41.160Z,4.80
2019-01-14T17:57:14.100Z,4.80
2019-01-14T17:59:45.547Z,4.80
2019-01-14T18:02:15.821Z,4.80
2019-01-14T18:04:46.980Z,4.80
2019-01-14T18:07:18.119Z,4.90
2019-01-14T18:09:49.252Z,4.90
2019-01-14T18:12:21.297Z,4.90
2019-01-14T18:14:53.686Z,4.70
2019-01-14T18:17:25.173Z,4.80
2019-01-14T18:24:55.950Z,4.60
2019-01-14T18:27:27.076Z,4.70
2019-01-14T18:35:02.263Z,4.80
2019-01-14T18:37:33.330Z,4.80
2019-01-14T18:40:06.237Z,4.80
2019-01-14T18:42:37.342Z,4.70
2019-01-14T18:45:12.363Z,4.70
2019-01-14T18:47:42.569Z,4.60
2019-01-14T18:50:16.969Z,4.70
2019-01-14T18:52:47.431Z,4.70
2019-01-14T18:55:20.248Z,4.70
2019-01-14T19:05:42.238Z,4.70
2019-01-14T19:10:44.196Z,4.60
2019-01-14T19:13:15.323Z,4.60
2019-01-14T19:20:45.489Z,4.50
2019-01-14T19:23:16.630Z,4.50
2019-01-14T19:28:19.148Z,4.50
2019-01-14T19:30:51.639Z,4.50
2019-01-14T19:33:21.877Z,4.60
2019-01-14T19:35:53.353Z,4.50
2019-01-14T19:38:25.745Z,4.60
2019-01-14T19:41:01.780Z,4.60
2019-01-14T19:43:32.785Z,4.50
2019-01-14T19:46:03.033Z,4.40
2019-01-14T19:48:33.237Z,4.30
2019-01-14T19:51:04.399Z,4.40
2019-01-14T19:56:07.296Z,4.50
2019-01-14T20:01:11.441Z,4.50
2019-01-14T20:03:44.185Z,4.50
2019-01-14T20:06:15.401Z,4.50
2019-01-14T20:13:48.231Z,4.50
2019-01-14T20:16:20.634Z,4.50
2019-01-14T20:18:50.849Z,4.50
2019-01-14T20:21:23.154Z,4.50
2019-01-14T20:23:54.291Z,4.40
2019-01-14T20:26:25.531Z,4.30
2019-01-14T20:28:57.929Z,4.40
2019-01-14T20:31:28.198Z,4.30
2019-01-14T20:33:58.593Z,4.50
2019-01-14T20:36:30.037Z,4.50
2019-01-14T20:39:01.182Z,4.50
2019-01-14T20:44:05.129Z,4.40
2019-01-14T20:46:34.333Z,4.40
2019-01-14T20:49:06.562Z,4.40
2019-01-14T20:51:38.839Z,4.40
2019-01-14T20:54:09.957Z,4.40
2019-01-14T20:56:42.149Z,4.40
2019-01-14T21:01:47.436Z,4.20
2019-01-14T21:04:20.425Z,4.10
2019-01-14T21:06:53.328Z,4.10
2019-01-14T21:09:24.573Z,4.00
2019-01-14T21:11:55.612Z,3.90
2019-01-14T21:16:57.447Z,3.90
2019-01-14T21:19:28.561Z,3.80
2019-01-14T21:26:59.366Z,3.70
2019-01-14T21:29:32.201Z,3.80
2019-01-14T21:32:06.681Z,3.70
2019-01-14T21:34:37.925Z,3.70
2019-01-14T21:37:09.056Z,3.60
2019-01-14T21:39:39.237Z,3.60
2019-01-14T21:42:12.162Z,3.50
2019-01-14T21:44:43.407Z,3.50
2019-01-14T21:49:47.143Z,3.50
2019-01-14T21:52:19.941Z,3.40
2019-01-14T21:54:51.196Z,3.50
2019-01-14T21:59:52.280Z,3.40
2019-01-14T22:07:24.241Z,3.40
2019-01-14T22:09:55.397Z,3.50
2019-01-14T22:14:56.299Z,3.30
2019-01-14T22:17:27.419Z,3.20
2019-01-14T22:19:59.808Z,3.20
2019-01-14T22:32:34.450Z,3.10
2019-01-14T22:37:36.093Z,3.00
2019-01-14T22:42:39.667Z,3.00
2019-01-14T22:45:12.837Z,2.90
2019-01-14T22:47:43.985Z,2.90
2019-01-14T22:50:16.634Z,2.80
2019-01-14T22:57:47.926Z,2.80
2019-01-14T23:10:27.075Z,2.80
2019-01-14T23:15:29.349Z,2.80
2019-01-14T23:17:59.751Z,2.70
2019-01-14T23:20:30.994Z,2.70
2019-01-14T23:25:33.253Z,2.70
2019-01-14T23:28:07.665Z,2.70
2019-01-14T23:30:38.988Z,2.70
2019-01-14T23:33:10.227Z,2.60
2019-01-14T23:40:42.666Z,2.60
2019-01-14T23:43:13.725Z,2.60
2019-01-14T23:45:46.213Z,2.60
2019-01-14T23:50:48.188Z,2.60
2019-01-14T23:55:49.013Z,2.50
2019-01-14T23:58:19.273Z,2.50
